Time;durP1;ratioP1;P1;durP2;ratioP2;P2;SDS_P1;SDS_P2;PMS_P1;PMS_P2;Temp;Humidity;BMP_temperature;BMP_pressure;BME280_temperature;BME280_humidity;BME280_pressure;Samples;Min_cycle;Max_cycle;Signal;HPM_P1;HPM_P2
2023/08/26 00:00:49;;;;;;;1.13;1.02;;;;;;;24.46;75.63;99210.41;5094772;28;20010;-63
2023/08/26 00:03:18;;;;;;;1.08;0.88;;;;;;;24.49;75.75;99215.44;5094666;28;20524;-63
2023/08/26 00:05:50;;;;;;;1.13;1.02;;;;;;;24.49;75.71;99212.81;5094617;28;20041;-63
2023/08/26 00:08:20;;;;;;;0.77;0.77;;;;;;;24.52;75.99;99203.00;5094546;28;20036;-63
2023/08/26 00:10:51;;;;;;;8.35;1.75;;;;;;;24.59;75.89;99211.28;5094777;28;20130;-63
2023/08/26 00:13:20;;;;;;;1.55;0.70;;;;;;;24.63;75.74;99212.75;5093496;28;20131;-62
2023/08/26 00:15:49;;;;;;;0.82;0.77;;;;;;;24.64;75.56;99217.06;5094498;28;20052;-62
2023/08/26 00:18:18;;;;;;;2.03;0.70;;;;;;;24.63;75.60;99220.59;5094264;28;20043;-63
2023/08/26 00:20:46;;;;;;;2.45;1.58;;;;;;;24.61;75.46;99219.84;5094666;28;20121;-63
2023/08/26 00:23:16;;;;;;;1.17;1.08;;;;;;;24.62;75.40;99221.50;5094645;28;20050;-62
2023/08/26 00:25:46;;;;;;;;;;;;;;;24.49;75.96;99212.81;5094673;28;20128;-63
2023/08/26 00:28:15;;;;;;;0.70;0.70;;;;;;;24.47;76.46;99212.09;5094244;28;19981;-63
2023/08/26 00:30:44;;;;;;;2.10;1.13;;;;;;;24.50;76.29;99210.09;5093024;28;20040;-63
2023/08/26 00:33:13;;;;;;;;;;;;;;;24.51;76.30;99213.56;5094960;28;20048;-63
2023/08/26 00:35:42;;;;;;;0.68;0.68;;;;;;;24.35;76.38;99213.72;5092931;28;19965;-63
2023/08/26 00:38:10;;;;;;;0.70;0.60;;;;;;;24.36;76.86;99209.31;5094000;28;20087;-63
2023/08/26 00:40:39;;;;;;;0.77;0.73;;;;;;;24.40;76.74;99211.63;5109805;28;20044;-63
2023/08/26 00:43:10;;;;;;;1.27;1.17;;;;;;;24.26;77.01;99208.25;5092795;28;20090;-63
2023/08/26 00:45:42;;;;;;;2.15;1.45;;;;;;;24.24;77.24;99204.88;5094002;28;20044;-63
2023/08/26 00:48:13;;;;;;;1.15;1.05;;;;;;;24.24;77.12;99205.72;5093237;28;20193;-63
2023/08/26 00:50:45;;;;;;;1.23;1.08;;;;;;;24.20;77.50;99208.63;5093763;28;20498;-63
2023/08/26 00:53:16;;;;;;;1.38;0.85;;;;;;;24.21;77.47;99205.09;5093879;28;20096;-63
2023/08/26 00:55:45;;;;;;;0.93;0.77;;;;;;;24.14;77.73;99215.06;5094484;28;20040;-63
2023/08/26 00:58:16;;;;;;;1.05;0.70;;;;;;;24.08;77.82;99209.41;5092519;28;20067;-63
2023/08/26 01:00:46;;;;;;;0.75;0.68;;;;;;;24.06;77.86;99195.59;5092943;28;20194;-63
2023/08/26 01:03:15;;;;;;;3.42;1.33;;;;;;;24.05;77.93;99209.56;5092547;28;20044;-62
2023/08/26 01:05:44;;;;;;;1.27;1.15;;;;;;;24.06;77.90;99221.69;5092577;28;20390;-63
2023/08/26 01:08:14;;;;;;;0.75;0.70;;;;;;;24.04;77.62;99221.78;5093629;28;20032;-63
2023/08/26 01:11:05;;;;;;;1.17;0.90;;;;;;;24.02;77.98;99220.22;5093713;28;20051;-63
2023/08/26 01:13:42;;;;;;;1.25;0.93;;;;;;;23.96;77.67;99221.44;5093893;28;20139;-63
2023/08/26 01:16:14;;;;;;;0.88;0.88;;;;;;;23.83;78.19;99210.91;5093575;28;20048;-63
2023/08/26 01:18:43;;;;;;;1.27;0.75;;;;;;;23.82;78.41;99205.81;5092261;28;20048;-63
2023/08/26 01:21:15;;;;;;;0.57;0.57;;;;;;;23.80;78.53;99211.09;5093849;28;20054;-63
2023/08/26 01:23:46;;;;;;;4.32;2.30;;;;;;;23.86;78.39;99202.91;5093652;28;20051;-63
2023/08/26 01:26:15;;;;;;;0.70;0.70;;;;;;;23.86;78.27;99205.53;5096860;28;20487;-62
2023/08/26 01:28:44;;;;;;;1.23;1.00;;;;;;;23.70;78.60;99203.97;5096473;28;20490;-63
2023/08/26 01:31:14;;;;;;;1.40;0.80;;;;;;;23.68;78.80;99198.81;5098001;28;20044;-62
2023/08/26 01:33:51;;;;;;;1.42;1.13;;;;;;;23.64;78.83;99207.78;5096396;28;20044;-62
2023/08/26 01:36:25;;;;;;;1.02;0.98;;;;;;;23.62;79.05;99204.44;5096732;28;20048;-63
2023/08/26 01:38:58;;;;;;;0.93;0.73;;;;;;;23.66;79.26;99203.31;5097424;28;20036;-63
2023/08/26 01:41:29;;;;;;;2.95;1.05;;;;;;;23.71;79.13;99196.03;5096329;28;20047;-62
2023/08/26 01:43:59;;;;;;;1.38;1.23;;;;;;;23.56;79.39;99197.00;5097432;28;20052;-62
2023/08/26 01:46:38;;;;;;;1.00;0.95;;;;;;;23.61;79.66;99184.50;5096190;28;20048;-62
2023/08/26 01:49:08;;;;;;;0.93;0.90;;;;;;;23.66;79.53;99182.44;5097334;28;20044;-62
2023/08/26 01:51:37;;;;;;;0.88;0.85;;;;;;;23.73;79.19;99193.34;5095621;28;20055;-63
2023/08/26 01:54:07;;;;;;;3.55;1.45;;;;;;;23.73;79.01;99199.38;5096036;28;20040;-62
2023/08/26 01:56:36;;;;;;;1.60;1.23;;;;;;;23.66;79.21;99195.47;5095992;28;20044;-63
2023/08/26 01:59:05;;;;;;;1.15;1.02;;;;;;;23.64;79.48;99189.53;5096991;28;20040;-63
2023/08/26 02:01:34;;;;;;;1.10;0.98;;;;;;;23.64;79.70;99179.09;5095844;28;20559;-62
2023/08/26 02:04:03;;;;;;;;;;;;;;;23.59;79.62;99175.94;5097816;28;20136;-62
2023/08/26 02:06:32;;;;;;;0.83;0.80;;;;;;;23.63;79.84;99167.03;5095846;28;19955;-62
2023/08/26 02:09:01;;;;;;;1.17;0.93;;;;;;;23.61;79.60;99163.66;5097161;28;20439;-62
2023/08/26 02:11:31;;;;;;;1.77;1.52;;;;;;;23.63;79.83;99167.03;5096801;28;20044;-62
2023/08/26 02:14:02;;;;;;;12.63;1.48;;;;;;;23.63;79.78;99167.03;5096844;28;20169;-62
2023/08/26 02:16:31;;;;;;;1.15;1.05;;;;;;;23.64;79.75;99173.91;5095838;28;20432;-62
2023/08/26 02:19:00;;;;;;;2.10;1.33;;;;;;;23.65;79.67;99172.97;5096643;28;20078;-63
2023/08/26 02:21:30;;;;;;;0.93;0.93;;;;;;;23.59;79.71;99170.75;5096945;28;20120;-63
2023/08/26 02:23:59;;;;;;;1.90;1.05;;;;;;;23.57;79.67;99172.59;5112416;28;20047;-63
2023/08/26 02:26:28;;;;;;;0.60;0.60;;;;;;;23.59;79.51;99162.91;5096620;28;20066;-63
2023/08/26 02:28:58;;;;;;;3.42;1.20;;;;;;;23.60;79.31;99156.78;5096566;28;20067;-63
2023/08/26 02:31:27;;;;;;;0.75;0.70;;;;;;;23.61;79.40;99163.66;5096783;28;20399;-63
2023/08/26 02:33:56;;;;;;;2.47;1.38;;;;;;;23.61;79.26;99157.63;5096704;28;20042;-63
2023/08/26 02:36:26;;;;;;;0.82;0.70;;;;;;;23.59;79.31;99160.31;5096653;28;20063;-63
2023/08/26 02:38:55;;;;;;;0.80;0.80;;;;;;;23.51;79.23;99157.38;5112376;28;20497;-63
2023/08/26 02:41:24;;;;;;;1.05;0.88;;;;;;;23.41;79.60;99160.63;5095196;28;20439;-63
2023/08/26 02:43:53;;;;;;;1.25;1.15;;;;;;;23.40;79.86;99159.78;5095364;28;20036;-63
2023/08/26 02:46:23;;;;;;;1.33;1.10;;;;;;;23.38;79.72;99156.44;5111948;28;20056;-63
2023/08/26 02:48:52;;;;;;;1.48;1.25;;;;;;;23.41;79.75;99161.47;5096269;28;20044;-63
2023/08/26 02:51:21;;;;;;;2.92;1.40;;;;;;;23.44;79.72;99148.25;5094624;28;20093;-63
2023/08/26 02:53:50;;;;;;;2.83;1.10;;;;;;;23.43;79.63;99148.31;5096093;28;20044;-63
2023/08/26 02:56:20;;;;;;;2.85;1.65;;;;;;;23.36;79.85;99158.28;5096278;28;20508;-63
2023/08/26 02:58:49;;;;;;;1.38;1.00;;;;;;;23.32;79.82;99148.97;5095881;28;20093;-63
2023/08/26 03:01:19;;;;;;;1.48;1.13;;;;;;;23.24;79.91;99146.84;5096263;28;20082;-63
2023/08/26 03:03:50;;;;;;;1.50;1.33;;;;;;;23.21;79.94;99144.41;5095830;28;20490;-62
2023/08/26 03:06:20;;;;;;;1.65;1.33;;;;;;;23.19;80.17;99148.88;5095921;28;20056;-63
2023/08/26 03:08:48;;;;;;;1.40;1.27;;;;;;;23.17;80.11;99137.72;5094661;28;20047;-63
2023/08/26 03:11:17;;;;;;;2.00;1.80;;;;;;;23.19;80.26;99141.06;5111860;28;20375;-62
2023/08/26 03:13:46;;;;;;;1.30;1.20;;;;;;;23.14;80.35;99142.25;5094752;28;20066;-62
2023/08/26 03:16:16;;;;;;;1.10;1.00;;;;;;;23.12;80.37;99139.75;5095549;28;20040;-62
2023/08/26 03:18:45;;;;;;;1.90;0.90;;;;;;;23.11;80.70;99132.03;5095831;28;20123;-62
2023/08/26 03:21:16;;;;;;;1.90;1.15;;;;;;;23.07;80.58;99135.75;5095018;28;20143;-62
2023/08/26 03:23:46;;;;;;;1.77;1.20;;;;;;;23.02;80.95;99127.38;5095757;28;20390;-62
2023/08/26 03:26:15;;;;;;;0.70;0.70;;;;;;;23.07;81.03;99122.72;5094131;28;20123;-62
2023/08/26 03:28:44;;;;;;;1.35;1.25;;;;;;;23.03;81.11;99124.69;5094461;28;20044;-62
2023/08/26 03:31:12;;;;;;;0.88;0.80;;;;;;;23.00;81.06;99129.25;5094137;28;20043;-62
2023/08/26 03:33:47;;;;;;;0.90;0.75;;;;;;;22.98;81.37;99131.09;5095323;28;20482;-62
2023/08/26 03:36:19;;;;;;;4.05;1.60;;;;;;;22.96;81.56;99132.97;5095520;28;20563;-62
2023/08/26 03:38:49;;;;;;;1.27;0.80;;;;;;;23.01;81.48;99125.72;5095168;28;20040;-62
2023/08/26 03:41:18;;;;;;;2.28;1.75;;;;;;;23.03;81.53;99135.13;5095487;28;20086;-62
2023/08/26 03:43:46;;;;;;;2.58;1.40;;;;;;;23.01;81.54;99130.94;5093893;28;20036;-62
2023/08/26 03:46:16;;;;;;;1.92;1.10;;;;;;;23.01;81.46;99133.53;5093242;28;20113;-63
2023/08/26 03:48:45;;;;;;;1.27;1.17;;;;;;;22.98;81.49;99131.94;5093803;28;20044;-62
2023/08/26 03:51:14;;;;;;;1.63;1.45;;;;;;;23.01;81.64;99126.53;5093388;28;20518;-63
2023/08/26 03:53:44;;;;;;;0.73;0.73;;;;;;;23.01;81.37;99130.94;5093718;28;20039;-62
2023/08/26 03:56:14;;;;;;;0.98;0.90;;;;;;;23.02;81.37;99133.44;5093710;28;20048;-63
2023/08/26 03:58:43;;;;;;;1.10;1.00;;;;;;;22.95;81.38;99141.69;5093883;28;20051;-63
2023/08/26 04:01:12;;;;;;;1.58;1.20;;;;;;;22.91;81.61;99146.25;5094731;28;20517;-62
2023/08/26 04:03:43;;;;;;;1.15;0.82;;;;;;;22.97;81.35;99150.25;5093449;28;20044;-63
2023/08/26 04:06:15;;;;;;;1.65;1.52;;;;;;;22.93;81.31;99147.00;5094701;28;20051;-63
2023/08/26 04:08:47;;;;;;;1.92;1.30;;;;;;;22.87;81.41;99146.50;5094900;28;20048;-63
2023/08/26 04:11:17;;;;;;;2.65;1.73;;;;;;;22.84;81.75;99150.16;5093441;28;20048;-63
2023/08/26 04:13:46;;;;;;;2.22;1.23;;;;;;;22.89;81.84;99147.28;5093365;28;20135;-62
2023/08/26 04:16:16;;;;;;;1.67;1.20;;;;;;;22.95;81.92;99152.09;5093261;28;20051;-63
2023/08/26 04:18:45;;;;;;;1.23;0.98;;;;;;;22.97;81.81;99147.63;5093199;28;20048;-62
2023/08/26 04:21:15;;;;;;;1.38;1.27;;;;;;;23.00;81.73;99145.72;5093153;28;20044;-62
2023/08/26 04:23:45;;;;;;;2.70;0.90;;;;;;;22.98;81.56;99141.50;5094936;28;20062;-63
2023/08/26 04:26:16;;;;;;;1.70;1.17;;;;;;;22.97;81.67;99150.25;5094593;28;20402;-63
2023/08/26 04:28:46;;;;;;;0.95;0.70;;;;;;;22.98;81.85;99154.53;5093366;28;20044;-62
2023/08/26 04:31:15;;;;;;;1.77;0.82;;;;;;;23.00;81.84;99150.91;5093348;28;20048;-62
2023/08/26 04:33:44;;;;;;;1.70;1.40;;;;;;;23.05;81.80;99141.06;5092984;28;20132;-62
2023/08/26 04:36:13;;;;;;;0.82;0.82;;;;;;;23.08;81.67;99147.84;5093246;28;20509;-63
2023/08/26 04:38:45;;;;;;;1.05;0.68;;;;;;;23.10;81.71;99146.00;5094041;28;20044;-63
2023/08/26 04:41:14;;;;;;;0.80;0.80;;;;;;;23.07;81.62;99148.78;5092898;28;20052;-63
2023/08/26 04:43:44;;;;;;;1.45;1.10;;;;;;;23.15;81.67;99159.56;5093997;28;20123;-63
2023/08/26 04:46:13;;;;;;;1.70;1.60;;;;;;;23.22;81.57;99155.66;5094138;28;20036;-62
2023/08/26 04:48:43;;;;;;;1.25;1.13;;;;;;;23.26;81.28;99157.16;5094317;28;20091;-62
2023/08/26 04:51:12;;;;;;;1.30;1.20;;;;;;;23.28;81.36;99157.88;5092359;28;20089;-62
2023/08/26 04:53:41;;;;;;;1.48;1.27;;;;;;;23.29;81.23;99159.56;5092767;28;20083;-63
2023/08/26 04:56:12;;;;;;;1.05;0.95;;;;;;;23.31;81.54;99160.31;5094056;28;20043;-63
2023/08/26 04:58:41;;;;;;;5.30;2.05;;;;;;;23.32;81.43;99167.22;5092010;28;20498;-62
2023/08/26 05:01:10;;;;;;;2.00;1.40;;;;;;;23.36;81.50;99160.06;5092499;28;20508;-63
2023/08/26 05:03:39;;;;;;;1.85;1.38;;;;;;;23.36;81.51;99158.28;5093759;28;20128;-63
2023/08/26 05:06:08;;;;;;;2.63;1.92;;;;;;;23.41;81.49;99156.25;5093979;28;20032;-63
2023/08/26 05:08:37;;;;;;;1.33;1.23;;;;;;;23.46;81.31;99154.19;5092546;28;20036;-63
2023/08/26 05:11:07;;;;;;;0.85;0.85;;;;;;;23.52;81.32;99159.03;5092461;28;20072;-62
2023/08/26 05:13:38;;;;;;;3.60;1.30;;;;;;;23.61;81.04;99157.63;5093732;28;20135;-63
2023/08/26 05:16:07;;;;;;;1.35;1.25;;;;;;;23.69;80.98;99161.41;5093024;28;20032;-62
2023/08/26 05:18:36;;;;;;;;;;;;;;;23.79;80.79;99157.31;5094033;28;20378;-62
2023/08/26 05:21:05;;;;;;;1.87;1.27;;;;;;;23.84;80.41;99164.84;5093459;28;19920;-63
2023/08/26 05:23:34;;;;;;;1.10;1.00;;;;;;;23.92;80.24;99162.59;5094116;28;20393;-63
2023/08/26 05:26:05;;;;;;;0.70;0.70;;;;;;;23.99;79.77;99162.09;5093480;28;20494;-63
2023/08/26 05:28:34;;;;;;;0.77;0.77;;;;;;;24.07;79.85;99160.81;5092621;28;20394;-62
2023/08/26 05:31:06;;;;;;;2.25;1.17;;;;;;;24.17;79.36;99161.88;5093833;28;20036;-63
2023/08/26 05:33:36;;;;;;;2.53;1.67;;;;;;;24.27;79.07;99157.75;5092324;28;20077;-63
2023/08/26 05:36:06;;;;;;;2.53;1.40;;;;;;;24.32;79.05;99166.13;5092633;28;20044;-63
2023/08/26 05:38:34;;;;;;;;;;;;;;;24.38;79.01;99163.09;5092890;28;20425;-62
2023/08/26 05:41:03;;;;;;;3.08;2.03;;;;;;;24.50;78.60;99165.75;5092138;28;19927;-62
2023/08/26 05:43:33;;;;;;;3.05;1.67;;;;;;;24.62;78.12;99169.31;5092181;28;20078;-63
2023/08/26 05:46:02;;;;;;;1.80;1.35;;;;;;;24.69;77.89;99167.16;5092176;28;20036;-63
2023/08/26 05:48:32;;;;;;;0.70;0.70;;;;;;;24.75;77.76;99161.50;5092272;28;20505;-63
2023/08/26 05:51:01;;;;;;;2.63;1.20;;;;;;;24.84;77.64;99164.38;5092083;28;20044;-63
2023/08/26 05:53:31;;;;;;;3.00;2.00;;;;;;;24.95;77.49;99155.81;5091915;28;20600;-63
2023/08/26 05:56:00;;;;;;;1.08;0.95;;;;;;;25.05;77.19;99157.69;5092015;28;20071;-62
2023/08/26 05:58:30;;;;;;;1.65;1.33;;;;;;;25.11;76.73;99154.69;5093243;28;20059;-62
2023/08/26 06:01:00;;;;;;;0.85;0.82;;;;;;;25.17;76.42;99151.63;5093387;28;20044;-62
2023/08/26 06:03:29;;;;;;;1.13;1.02;;;;;;;25.30;76.23;99157.69;5091970;28;20040;-63
2023/08/26 06:06:00;;;;;;;2.72;2.05;;;;;;;25.40;75.95;99157.06;5091945;28;20048;-63
2023/08/26 06:08:29;;;;;;;1.05;0.77;;;;;;;25.50;75.83;99163.34;5093126;28;20086;-62
2023/08/26 06:10:58;;;;;;;5.30;1.63;;;;;;;25.58;75.21;99158.44;5094946;28;20127;-62
2023/08/26 06:13:27;;;;;;;1.25;1.13;;;;;;;25.70;75.20;99154.91;5096719;28;20127;-62
2023/08/26 06:15:56;;;;;;;2.20;1.67;;;;;;;25.82;74.84;99154.88;5095625;28;20050;-62
2023/08/26 06:18:26;;;;;;;1.33;0.90;;;;;;;25.95;74.74;99160.09;5096994;28;20048;-63
2023/08/26 06:20:55;;;;;;;1.35;1.20;;;;;;;26.02;74.31;99166.53;5095519;28;20516;-63
2023/08/26 06:23:26;;;;;;;1.95;1.63;;;;;;;26.11;73.78;99171.13;5095745;28;20040;-62
2023/08/26 06:25:56;;;;;;;1.48;1.38;;;;;;;26.23;73.45;99170.25;5095472;28;20076;-62
2023/08/26 06:28:27;;;;;;;2.13;1.17;;;;;;;26.32;73.42;99169.56;5096562;28;20506;-62
2023/08/26 06:30:59;;;;;;;1.45;1.20;;;;;;;26.45;73.14;99169.50;5095625;28;20549;-62
2023/08/26 06:33:35;;;;;;;2.03;1.17;;;;;;;26.48;72.75;99180.59;5096504;28;20062;-62
2023/08/26 06:36:09;;;;;;;0.82;0.82;;;;;;;26.49;72.54;99174.41;5096726;28;20048;-62
2023/08/26 06:38:39;;;;;;;2.78;1.58;;;;;;;26.52;72.49;99176.81;5096343;28;20048;-62
2023/08/26 06:41:09;;;;;;;0.95;0.85;;;;;;;26.57;71.92;99179.91;5096552;28;20094;-62
2023/08/26 06:43:38;;;;;;;1.20;1.10;;;;;;;26.68;71.71;99188.75;5096254;28;20561;-63
2023/08/26 06:46:07;;;;;;;1.48;1.38;;;;;;;26.76;71.44;99181.19;5094987;28;20036;-62
2023/08/26 06:48:36;;;;;;;1.52;0.98;;;;;;;26.81;71.28;99186.91;5096445;28;20067;-62
2023/08/26 06:51:05;;;;;;;1.45;1.30;;;;;;;26.88;71.17;99182.88;5096147;28;20051;-62
2023/08/26 06:53:34;;;;;;;2.10;1.15;;;;;;;26.92;71.10;99181.72;5096554;28;20047;-63
2023/08/26 06:56:05;;;;;;;2.05;1.58;;;;;;;27.09;71.01;99192.56;5096088;28;20044;-63
2023/08/26 06:58:34;;;;;;;2.13;1.00;;;;;;;27.21;70.66;99186.41;5095966;28;20044;-62
2023/08/26 07:01:03;;;;;;;0.68;0.68;;;;;;;27.25;70.30;99189.63;5095809;28;20043;-62
2023/08/26 07:03:35;;;;;;;1.55;1.17;;;;;;;27.30;70.29;99187.50;5095798;28;20078;-62
2023/08/26 07:06:04;;;;;;;1.17;1.08;;;;;;;27.38;70.20;99177.25;5095849;28;20101;-62
2023/08/26 07:08:32;;;;;;;;;;;;;;;27.50;69.85;99180.75;5096172;28;20051;-63
2023/08/26 07:11:02;;;;;;;1.33;1.13;;;;;;;27.58;69.43;99187.03;5095761;28;19924;-62
2023/08/26 07:13:32;;;;;;;1.27;0.88;;;;;;;27.68;68.98;99189.78;5095729;28;20036;-63
2023/08/26 07:16:01;;;;;;;0.90;0.90;;;;;;;27.78;68.87;99190.72;5095918;28;20129;-63
2023/08/26 07:18:30;;;;;;;0.50;0.50;;;;;;;27.86;68.62;99188.31;5096362;28;20541;-62
2023/08/26 07:20:58;;;;;;;1.10;1.00;;;;;;;27.95;68.43;99181.50;5094448;28;20040;-63
2023/08/26 07:23:27;;;;;;;1.20;1.10;;;;;;;28.04;67.98;99175.56;5095535;28;20044;-62
2023/08/26 07:25:56;;;;;;;1.50;1.38;;;;;;;28.11;67.68;99179.34;5095473;28;20036;-63
2023/08/26 07:28:25;;;;;;;3.10;2.05;;;;;;;28.23;67.53;99175.75;5095346;28;20043;-63
2023/08/26 07:31:02;;;;;;;0.95;0.80;;;;;;;28.28;66.81;99173.56;5095625;28;20391;-63
2023/08/26 07:33:31;;;;;;;0.98;0.90;;;;;;;28.43;66.55;99169.72;5095297;28;20052;-63
2023/08/26 07:36:03;;;;;;;4.43;1.23;;;;;;;28.53;65.54;99178.47;5095205;28;20047;-62
2023/08/26 07:38:32;;;;;;;5.15;1.80;;;;;;;28.67;65.18;99170.34;5095504;28;20135;-63
2023/08/26 07:41:01;;;;;;;0.70;0.70;;;;;;;28.79;65.13;99158.81;5095291;28;20517;-63
2023/08/26 07:43:33;;;;;;;1.42;1.13;;;;;;;28.95;64.33;99164.44;5095154;28;20044;-63
2023/08/26 07:46:04;;;;;;;0.95;0.90;;;;;;;29.04;63.60;99168.91;5095081;28;20550;-63
2023/08/26 07:48:36;;;;;;;2.47;1.73;;;;;;;29.07;63.05;99160.78;5095040;28;20152;-63
2023/08/26 07:51:06;;;;;;;1.88;1.45;;;;;;;29.08;62.52;99161.59;5094922;28;20040;-62
2023/08/26 07:53:35;;;;;;;1.38;1.08;;;;;;;29.12;62.61;99153.31;5095366;28;20520;-62
2023/08/26 07:56:04;;;;;;;0.80;0.80;;;;;;;29.31;61.93;99159.66;5095214;28;20040;-63
2023/08/26 07:58:32;;;;;;;;;;;;;;;29.37;61.27;99156.53;5095214;28;20044;-63
2023/08/26 08:01:01;;;;;;;1.88;1.23;;;;;;;29.38;61.18;99150.28;5094724;28;19966;-63
2023/08/26 08:03:31;;;;;;;1.08;0.98;;;;;;;29.43;61.69;99148.09;5094986;28;20113;-63
2023/08/26 08:06:01;;;;;;;0.95;0.68;;;;;;;29.37;61.35;99148.63;5094700;28;20040;-63
2023/08/26 08:08:29;;;;;;;1.52;1.15;;;;;;;29.38;61.83;99145.00;5095029;28;20043;-63
2023/08/26 08:10:58;;;;;;;1.65;1.35;;;;;;;29.48;61.29;99148.53;5094534;28;20048;-63
2023/08/26 08:13:27;;;;;;;1.30;1.05;;;;;;;29.54;60.52;99140.09;5094514;28;20044;-63
2023/08/26 08:15:56;;;;;;;0.57;0.57;;;;;;;29.64;60.39;99138.31;5094465;28;20040;-63
2023/08/26 08:18:25;;;;;;;0.93;0.90;;;;;;;29.71;59.82;99131.53;5094769;28;20059;-62
2023/08/26 08:20:56;;;;;;;0.82;0.70;;;;;;;29.75;60.10;99133.78;5110111;28;20375;-63
2023/08/26 08:23:24;;;;;;;1.35;0.90;;;;;;;29.79;59.20;99134.38;5094322;28;20059;-63
2023/08/26 08:25:53;;;;;;;1.45;1.35;;;;;;;29.98;59.97;99137.03;5094325;28;20044;-63
2023/08/26 08:28:22;;;;;;;1.05;0.90;;;;;;;30.13;59.13;99127.78;5094417;28;20040;-63
2023/08/26 08:30:51;;;;;;;1.27;1.17;;;;;;;30.29;58.89;99122.78;5094475;28;20508;-64
2023/08/26 08:33:20;;;;;;;;;;;;;;;30.35;58.58;99122.25;5094330;28;20042;-63
2023/08/26 08:35:49;;;;;;;0.75;0.63;;;;;;;30.40;58.85;99120.03;5094224;28;19926;-63
2023/08/26 08:38:19;;;;;;;2.45;1.35;;;;;;;30.42;58.75;99117.28;5094024;28;20089;-63
2023/08/26 08:40:48;;;;;;;1.58;1.42;;;;;;;30.43;58.46;99119.75;5093963;28;20044;-63
2023/08/26 08:43:17;;;;;;;;;;;;;;;30.56;58.51;99102.81;5094689;28;20136;-63
2023/08/26 08:45:46;;;;;;;6.95;0.80;;;;;;;30.70;57.90;99116.38;5093996;28;20262;-63
2023/08/26 08:48:15;;;;;;;1.77;1.63;;;;;;;30.82;58.16;99109.16;5093932;28;20032;-63
2023/08/26 08:50:45;;;;;;;1.20;1.10;;;;;;;30.84;57.22;99107.19;5093786;28;20131;-63
2023/08/26 08:53:17;;;;;;;0.95;0.80;;;;;;;30.87;57.36;99101.63;5093737;28;20056;-63
2023/08/26 08:55:48;;;;;;;0.73;0.73;;;;;;;30.94;57.27;99103.59;5094173;28;20048;-63
2023/08/26 08:58:18;;;;;;;1.55;1.02;;;;;;;30.93;57.18;99098.47;5093980;28;20044;-63
2023/08/26 09:00:47;;;;;;;1.02;0.95;;;;;;;30.98;56.41;99098.84;5093792;28;20478;-64
2023/08/26 09:03:17;;;;;;;0.73;0.68;;;;;;;31.00;57.06;99096.94;5093695;28;20028;-63
2023/08/26 09:05:47;;;;;;;2.47;1.77;;;;;;;31.07;56.45;99098.81;5093122;28;20048;-63
2023/08/26 09:08:19;;;;;;;1.08;0.95;;;;;;;31.19;56.64;99110.03;5093663;28;20075;-63
2023/08/26 09:10:50;;;;;;;1.10;1.00;;;;;;;31.15;56.81;99116.56;5093803;28;20066;-63
2023/08/26 09:13:19;;;;;;;0.77;0.77;;;;;;;31.12;56.56;99111.59;5093922;28;20432;-63
2023/08/26 09:15:48;;;;;;;6.70;1.38;;;;;;;31.14;57.19;99114.91;5093509;28;20051;-63
2023/08/26 09:18:19;;;;;;;1.58;1.42;;;;;;;31.17;57.18;99119.06;5093539;28;20044;-63
2023/08/26 09:20:48;;;;;;;1.52;1.30;;;;;;;31.19;57.19;99107.41;5093592;28;20051;-63
2023/08/26 09:23:17;;;;;;;1.05;0.95;;;;;;;31.25;56.67;99114.72;5093778;28;20040;-63
2023/08/26 09:25:53;;;;;;;;;;;;;;;31.30;56.62;99120.38;5093943;28;20067;-63
2023/08/26 09:28:24;;;;;;;2.08;1.50;;;;;;;31.27;56.50;99131.22;5093970;28;20018;-63
2023/08/26 09:31:04;;;;;;;0.95;0.82;;;;;;;31.11;55.80;99100.22;5093563;28;20044;-63
2023/08/26 09:33:33;;;;;;;1.15;0.90;;;;;;;31.23;55.44;99092.94;5093698;28;20043;-63
2023/08/26 09:36:02;;;;;;;1.48;1.15;;;;;;;31.51;54.82;99070.03;5093466;28;20040;-63
2023/08/26 09:38:44;;;;;;;0.63;0.63;;;;;;;31.72;53.64;99060.84;5093621;28;20634;-64
2023/08/26 09:41:19;;;;;;;1.55;1.27;;;;;;;31.93;53.41;99049.19;5093442;28;20068;-64
2023/08/26 09:43:48;;;;;;;1.48;1.33;;;;;;;32.18;52.95;99064.28;5093314;28;20052;-63
2023/08/26 09:46:19;;;;;;;1.27;0.80;;;;;;;32.41;52.44;99076.88;5097426;28;20040;-63
2023/08/26 09:48:49;;;;;;;1.60;1.00;;;;;;;32.65;52.02;99105.31;5097689;28;20054;-63
2023/08/26 09:51:26;;;;;;;2.35;1.23;;;;;;;32.76;51.64;99112.97;5096936;28;20047;-63
2023/08/26 09:53:55;;;;;;;1.30;1.20;;;;;;;32.88;51.35;99127.59;5097255;28;20063;-64
2023/08/26 09:56:27;;;;;;;0.95;0.85;;;;;;;32.78;51.65;99132.16;5097212;28;20052;-64
2023/08/26 09:58:57;;;;;;;1.13;1.02;;;;;;;32.70;51.78;99145.34;5097390;28;20043;-63
2023/08/26 10:01:27;;;;;;;1.73;1.17;;;;;;;32.60;51.68;99144.59;5097231;28;20052;-63
2023/08/26 10:04:08;;;;;;;0.98;0.93;;;;;;;32.55;51.68;99152.16;5096900;28;20055;-63
2023/08/26 10:06:42;;;;;;;22.77;2.50;;;;;;;32.31;52.04;99147.47;5097117;28;20050;-63
2023/08/26 10:09:20;;;;;;;0.88;0.77;;;;;;;32.11;52.60;99137.19;5096950;28;20109;-63
2023/08/26 10:11:56;;;;;;;2.25;1.38;;;;;;;31.98;52.76;99132.28;5096902;28;20052;-63
2023/08/26 10:14:30;;;;;;;1.65;0.88;;;;;;;31.89;52.67;99127.06;5097180;28;20044;-63
2023/08/26 10:17:02;;;;;;;1.23;1.08;;;;;;;31.90;52.94;99132.16;5096768;28;20078;-63
2023/08/26 10:19:32;;;;;;;1.08;0.98;;;;;;;32.04;53.29;99125.56;5097657;28;20370;-63
2023/08/26 10:22:04;;;;;;;1.15;1.05;;;;;;;32.05;53.47;99127.25;5096642;28;20052;-63
2023/08/26 10:24:33;;;;;;;1.98;1.65;;;;;;;32.02;53.68;99127.53;5097331;28;20113;-63
2023/08/26 10:27:05;;;;;;;1.15;0.95;;;;;;;31.91;53.75;99125.09;5096931;28;20498;-63
2023/08/26 10:29:34;;;;;;;2.53;1.50;;;;;;;31.80;53.37;99126.94;5096610;28;20051;-63
2023/08/26 10:32:17;;;;;;;1.30;1.20;;;;;;;31.73;53.48;99133.81;5096534;28;20046;-63
2023/08/26 10:34:57;;;;;;;3.63;1.13;;;;;;;31.53;53.37;99126.97;5096828;28;20036;-62
2023/08/26 10:37:27;;;;;;;0.77;0.77;;;;;;;31.11;53.08;99126.56;5096733;28;20052;-63
2023/08/26 10:39:56;;;;;;;1.63;1.27;;;;;;;30.79;53.09;99130.50;5096672;28;20040;-63
2023/08/26 10:42:27;;;;;;;2.10;1.55;;;;;;;30.62;54.11;99154.97;5096481;28;20048;-62
2023/08/26 10:44:58;;;;;;;1.15;0.98;;;;;;;30.59;54.78;99144.72;5096935;28;20045;-62
2023/08/26 10:47:38;;;;;;;1.67;1.30;;;;;;;30.67;55.46;99152.72;5096718;28;20112;-63
2023/08/26 10:50:20;;;;;;;0.80;0.80;;;;;;;30.45;54.36;99157.31;5096572;28;20431;-63
2023/08/26 10:52:51;;;;;;;0.98;0.90;;;;;;;30.26;53.66;99165.19;5095978;28;20528;-63
2023/08/26 10:55:21;;;;;;;0.57;0.52;;;;;;;30.29;52.84;99157.03;5096625;28;20052;-63
2023/08/26 10:58:12;;;;;;;0.40;0.40;;;;;;;30.49;52.37;99161.38;5096181;28;20067;-63
2023/08/26 11:00:43;;;;;;;0.50;0.50;;;;;;;30.67;52.16;99158.00;5095958;28;20044;-62
2023/08/26 11:03:13;;;;;;;0.40;0.40;;;;;;;30.92;51.50;99163.56;5096002;28;20048;-61
2023/08/26 11:05:44;;;;;;;0.40;0.40;;;;;;;31.09;51.94;99167.25;5096323;28;20043;-62
2023/08/26 11:08:13;;;;;;;0.70;0.70;;;;;;;30.98;51.85;99162.13;5095850;28;20044;-62
2023/08/26 11:10:43;;;;;;;0.57;0.57;;;;;;;31.05;51.83;99160.63;5096118;28;20047;-63
2023/08/26 11:13:13;;;;;;;0.68;0.55;;;;;;;31.34;52.20;99142.84;5095660;28;20048;-62
2023/08/26 11:15:43;;;;;;;1.10;1.00;;;;;;;31.52;51.09;99150.88;5095987;28;20078;-62
2023/08/26 11:18:12;;;;;;;0.40;0.40;;;;;;;31.57;51.06;99154.75;5095648;28;20048;-62
2023/08/26 11:20:41;;;;;;;;;;;;;;;31.83;51.61;99144.31;5096300;28;20036;-62
2023/08/26 11:23:10;;;;;;;0.70;0.70;;;;;;;32.06;50.84;99139.47;5095516;28;19960;-62
2023/08/26 11:25:39;;;;;;;;;;;;;;;32.24;50.20;99138.50;5095863;28;20046;-62
2023/08/26 11:28:10;;;;;;;0.57;0.57;;;;;;;31.96;48.86;99143.97;5095397;28;20294;-63
2023/08/26 11:30:45;;;;;;;0.65;0.65;;;;;;;31.87;49.66;99142.19;5095316;28;20071;-63
2023/08/26 11:33:18;;;;;;;0.70;0.70;;;;;;;31.88;49.37;99144.69;5095325;28;20056;-63
2023/08/26 11:35:48;;;;;;;0.75;0.75;;;;;;;31.71;50.11;99146.34;5095737;28;20044;-63
2023/08/26 11:38:36;;;;;;;1.63;1.00;;;;;;;31.71;51.84;99142.84;5095275;28;20056;-63
2023/08/26 11:41:06;;;;;;;0.68;0.63;;;;;;;31.58;51.45;99140.56;5095109;28;20058;-63
2023/08/26 11:43:36;;;;;;;0.40;0.40;;;;;;;31.38;52.04;99149.53;5095123;28;20498;-64
2023/08/26 11:46:08;;;;;;;0.45;0.45;;;;;;;30.91;53.10;99150.50;5095059;28;20218;-64
2023/08/26 11:48:37;;;;;;;0.50;0.50;;;;;;;30.57;53.99;99146.66;5095363;28;20071;-63
2023/08/26 11:51:07;;;;;;;0.68;0.68;;;;;;;30.15;54.78;99141.63;5094983;28;20494;-63